Time;durP1;ratioP1;P1;durP2;ratioP2;P2;SDS_P1;SDS_P2;PMS_P1;PMS_P2;Temp;Humidity;BMP_temperature;BMP_pressure;BME280_temperature;BME280_humidity;BME280_pressure;Samples;Min_cycle;Max_cycle;Signal;HPM_P1;HPM_P2
2021/08/22 00:01:38;;;;;;;3.45;3.03;;;;;;;;;;5077042;28;20265;-44
2021/08/22 00:04:04;;;;;;;4.03;2.80;;;;;;;;;;5078092;28;20194;-44
2021/08/22 00:06:30;;;;;;;6.13;3.10;;;;;;;;;;5082061;28;20183;-44
2021/08/22 00:08:56;;;;;;;3.65;3.00;;;;;;;;;;5096078;28;20193;-44
2021/08/22 00:11:22;;;;;;;4.07;3.28;;;;;;;;;;5078399;28;20217;-44
2021/08/22 00:13:48;;;;;;;4.40;3.38;;;;;;;;;;5075995;28;20162;-44
2021/08/22 00:16:14;;;;;;;4.32;3.30;;;;;;;;;;5077756;28;20452;-44
2021/08/22 00:18:40;;;;;;;3.70;3.20;;;;;;;;;;5076536;28;20213;-44
2021/08/22 00:21:06;;;;;;;3.70;3.40;;;;;;;;;;5084981;28;20210;-44
2021/08/22 00:23:32;;;;;;;5.03;3.28;;;;;;;;;;5105531;28;20448;-44
2021/08/22 00:25:59;;;;;;;4.20;3.72;;;;;;;;;;5115103;28;20177;-44
2021/08/22 00:28:25;;;;;;;6.38;3.22;;;;;;;;;;5116842;28;20181;-44
2021/08/22 00:30:51;;;;;;;4.35;3.60;;;;;;;;;;5083908;28;20293;-44
2021/08/22 00:33:17;;;;;;;4.22;3.20;;;;;;;;;;5081654;28;20178;-44
2021/08/22 00:35:43;;;;;;;4.40;3.35;;;;;;;;;;5092647;28;20197;-44
2021/08/22 00:38:09;;;;;;;4.90;3.75;;;;;;;;;;5082900;28;20221;-44
2021/08/22 00:40:35;;;;;;;4.15;3.50;;;;;;;;;;5076585;28;20530;-44
2021/08/22 00:43:03;;;;;;;5.15;3.30;;;;;;;;;;5093021;28;20162;-44
2021/08/22 00:45:29;;;;;;;4.25;3.67;;;;;;;;;;5095863;28;20169;-44
2021/08/22 00:47:56;;;;;;;3.95;3.55;;;;;;;;;;5078496;28;20257;-44
2021/08/22 00:50:22;;;;;;;5.28;3.72;;;;;;;;;;5089845;28;20299;-44
2021/08/22 00:52:50;;;;;;;3.60;3.30;;;;;;;;;;5086601;28;20257;-44
2021/08/22 00:55:17;;;;;;;4.20;3.45;;;;;;;;;;5096592;28;20166;-44
2021/08/22 00:57:43;;;;;;;4.13;3.53;;;;;;;;;;5078159;28;20210;-44
2021/08/22 01:00:10;;;;;;;4.05;3.40;;;;;;;;;;5076256;28;20190;-44
2021/08/22 01:02:43;;;;;;;4.13;3.55;;;;;;;;;;5092074;28;20185;-44
2021/08/22 01:05:24;;;;;;;3.55;3.25;;;;;;;;;;5084171;28;20304;-44
2021/08/22 01:07:55;;;;;;;4.05;3.40;;;;;;;;;;5083011;28;20183;-44
2021/08/22 01:10:25;;;;;;;4.28;3.47;;;;;;;;;;5075762;28;20443;-44
2021/08/22 01:13:04;;;;;;;3.78;3.42;;;;;;;;;;5075990;28;20170;-44
2021/08/22 01:15:32;;;;;;;4.55;3.20;;;;;;;;;;5088611;28;20169;-44
2021/08/22 01:18:00;;;;;;;4.00;3.58;;;;;;;;;;5076017;28;20189;-44
2021/08/22 01:20:32;;;;;;;5.32;3.22;;;;;;;;;;5086541;28;20174;-44
2021/08/22 01:22:59;;;;;;;3.95;3.00;;;;;;;;;;5088447;28;20179;-44
2021/08/22 01:25:25;;;;;;;4.05;3.45;;;;;;;;;;5096618;28;20174;-44
2021/08/22 01:27:51;;;;;;;3.95;3.55;;;;;;;;;;5075047;28;20743;-43
2021/08/22 01:30:19;;;;;;;5.10;3.42;;;;;;;;;;5075579;28;20220;-43
2021/08/22 01:32:46;;;;;;;4.00;3.58;;;;;;;;;;5076409;28;20181;-43
2021/08/22 01:35:13;;;;;;;4.97;3.35;;;;;;;;;;5093015;28;20180;-43
2021/08/22 01:37:40;;;;;;;4.05;3.63;;;;;;;;;;5083573;28;20166;-43
2021/08/22 01:40:07;;;;;;;4.10;3.47;;;;;;;;;;5095674;28;20445;-43
2021/08/22 01:42:34;;;;;;;3.45;3.15;;;;;;;;;;5091866;28;20265;-43
2021/08/22 01:45:02;;;;;;;4.65;3.22;;;;;;;;;;5087384;28;20179;-43
2021/08/22 01:47:28;;;;;;;5.82;3.60;;;;;;;;;;5074772;28;20651;-43
2021/08/22 01:49:54;;;;;;;3.80;3.10;;;;;;;;;;5092340;28;20186;-44
2021/08/22 01:52:21;;;;;;;4.20;3.60;;;;;;;;;;5086189;28;20279;-43
2021/08/22 01:54:47;;;;;;;4.40;3.13;;;;;;;;;;5080945;28;20174;-43
2021/08/22 01:57:13;;;;;;;4.70;3.40;;;;;;;;;;5081866;28;20284;-43
2021/08/22 01:59:39;;;;;;;3.38;3.08;;;;;;;;;;5075023;28;20557;-43
2021/08/22 02:02:06;;;;;;;4.75;3.60;;;;;;;;;;5085684;28;20251;-43
2021/08/22 02:04:42;;;;;;;4.70;3.42;;;;;;;;;;5094825;28;20174;-44
2021/08/22 02:07:15;;;;;;;6.40;3.28;;;;;;;;;;5082693;28;20177;-44
2021/08/22 02:09:47;;;;;;;5.35;3.20;;;;;;;;;;5095101;28;20194;-44
2021/08/22 02:12:15;;;;;;;3.92;3.42;;;;;;;;;;5081745;28;20217;-44
2021/08/22 02:14:44;;;;;;;4.82;3.05;;;;;;;;;;5077358;28;20200;-44
2021/08/22 02:17:10;;;;;;;5.00;2.88;;;;;;;;;;5093527;28;20216;-44
2021/08/22 02:19:37;;;;;;;4.35;3.33;;;;;;;;;;5074810;28;20585;-44
2021/08/22 02:22:03;;;;;;;4.95;3.10;;;;;;;;;;5090402;28;20186;-44
2021/08/22 02:24:29;;;;;;;3.45;2.90;;;;;;;;;;5106629;28;20209;-44
2021/08/22 02:26:55;;;;;;;4.30;3.25;;;;;;;;;;5094520;28;20539;-44
2021/08/22 02:29:21;;;;;;;3.30;3.00;;;;;;;;;;5093513;28;20181;-44
2021/08/22 02:31:47;;;;;;;3.40;3.10;;;;;;;;;;5094524;28;20208;-44
2021/08/22 02:34:13;;;;;;;4.10;2.92;;;;;;;;;;5094091;28;20181;-44
2021/08/22 02:36:39;;;;;;;4.43;3.40;;;;;;;;;;5081107;28;20514;-44
2021/08/22 02:39:05;;;;;;;4.43;3.00;;;;;;;;;;5094181;28;20185;-44
2021/08/22 02:41:31;;;;;;;5.28;2.65;;;;;;;;;;5087413;28;20181;-44
2021/08/22 02:43:57;;;;;;;3.83;3.20;;;;;;;;;;5084816;28;20269;-44
2021/08/22 02:46:23;;;;;;;2.80;2.60;;;;;;;;;;5083753;28;20182;-44
2021/08/22 02:48:49;;;;;;;3.42;2.95;;;;;;;;;;5093102;28;20177;-44
2021/08/22 02:51:15;;;;;;;3.67;2.92;;;;;;;;;;5084447;28;20271;-44
2021/08/22 02:53:41;;;;;;;3.20;2.90;;;;;;;;;;5092034;28;20551;-44
2021/08/22 02:56:08;;;;;;;4.63;2.83;;;;;;;;;;5085855;28;20182;-43
2021/08/22 02:58:34;;;;;;;3.80;3.25;;;;;;;;;;5091045;28;20272;-43
2021/08/22 03:01:00;;;;;;;3.50;3.08;;;;;;;;;;5094395;28;20196;-43
2021/08/22 03:03:26;;;;;;;4.22;3.08;;;;;;;;;;5089359;28;20194;-43
2021/08/22 03:05:52;;;;;;;3.78;3.40;;;;;;;;;;5083941;28;20171;-43
2021/08/22 03:08:18;;;;;;;5.90;2.90;;;;;;;;;;5088275;28;20407;-43
2021/08/22 03:10:47;;;;;;;4.00;3.15;;;;;;;;;;5090717;28;20210;-43
2021/08/22 03:13:13;;;;;;;3.70;3.30;;;;;;;;;;5094537;28;20158;-43
2021/08/22 03:15:39;;;;;;;3.08;2.55;;;;;;;;;;5093519;28;20170;-43
2021/08/22 03:18:05;;;;;;;4.85;2.72;;;;;;;;;;5081118;28;20205;-43
2021/08/22 03:20:31;;;;;;;3.13;2.83;;;;;;;;;;5077660;28;20171;-43
2021/08/22 03:22:57;;;;;;;4.68;2.80;;;;;;;;;;5102675;28;20537;-43
2021/08/22 03:25:23;;;;;;;4.57;3.33;;;;;;;;;;5093501;28;20174;-43
2021/08/22 03:27:49;;;;;;;2.83;2.63;;;;;;;;;;5077616;28;20269;-43
2021/08/22 03:30:15;;;;;;;4.38;3.03;;;;;;;;;;5074235;28;20261;-44
2021/08/22 03:32:41;;;;;;;4.88;3.40;;;;;;;;;;5074224;28;20328;-44
2021/08/22 03:35:07;;;;;;;3.85;2.80;;;;;;;;;;5082046;28;20193;-44
2021/08/22 03:37:33;;;;;;;3.38;3.03;;;;;;;;;;5084723;28;20267;-44
2021/08/22 03:39:59;;;;;;;3.38;2.90;;;;;;;;;;5074204;28;20476;-44
2021/08/22 03:42:25;;;;;;;3.25;2.88;;;;;;;;;;5076726;28;20206;-44
2021/08/22 03:44:51;;;;;;;3.20;2.90;;;;;;;;;;5075138;28;20225;-44
2021/08/22 03:47:17;;;;;;;3.33;3.03;;;;;;;;;;5088346;28;20189;-43
2021/08/22 03:49:43;;;;;;;3.78;3.10;;;;;;;;;;5096934;28;20174;-43
2021/08/22 03:52:09;;;;;;;3.35;3.05;;;;;;;;;;5081436;28;20209;-43
2021/08/22 03:54:35;;;;;;;3.50;3.20;;;;;;;;;;5077835;28;20179;-43
2021/08/22 03:57:01;;;;;;;3.55;3.25;;;;;;;;;;5076942;28;20166;-43
2021/08/22 03:59:27;;;;;;;3.40;3.10;;;;;;;;;;5077164;28;20494;-43
2021/08/22 04:01:53;;;;;;;3.33;2.92;;;;;;;;;;5082311;28;20219;-43
2021/08/22 04:04:19;;;;;;;5.70;3.40;;;;;;;;;;5089136;28;20189;-43
2021/08/22 04:06:49;;;;;;;3.63;3.33;;;;;;;;;;5084300;28;20182;-43
2021/08/22 04:09:17;;;;;;;3.50;3.20;;;;;;;;;;5097108;28;20199;-44
2021/08/22 04:11:44;;;;;;;3.83;3.53;;;;;;;;;;5088569;28;20201;-44
2021/08/22 04:14:10;;;;;;;3.53;3.22;;;;;;;;;;5091063;28;20282;-44
2021/08/22 04:16:36;;;;;;;3.85;3.50;;;;;;;;;;5078706;28;20167;-44
2021/08/22 04:19:02;;;;;;;3.30;3.00;;;;;;;;;;5096305;28;20180;-44
2021/08/22 04:21:28;;;;;;;3.55;3.10;;;;;;;;;;5092231;28;20185;-43
2021/08/22 04:23:54;;;;;;;3.95;3.58;;;;;;;;;;5096149;28;20440;-43
2021/08/22 04:26:20;;;;;;;5.78;3.55;;;;;;;;;;5082104;28;20185;-43
2021/08/22 04:28:46;;;;;;;3.95;3.60;;;;;;;;;;5089002;28;20182;-43
2021/08/22 04:31:12;;;;;;;3.83;3.53;;;;;;;;;;5076770;28;20280;-43
2021/08/22 04:33:38;;;;;;;3.72;3.40;;;;;;;;;;5086246;28;20561;-43
2021/08/22 04:36:05;;;;;;;3.58;3.28;;;;;;;;;;5090743;28;20194;-43
2021/08/22 04:38:31;;;;;;;4.65;3.70;;;;;;;;;;5081808;28;20162;-43
2021/08/22 04:40:57;;;;;;;4.05;3.72;;;;;;;;;;5094294;28;20180;-43
2021/08/22 04:43:24;;;;;;;4.55;3.58;;;;;;;;;;5096292;28;20186;-43
2021/08/22 04:45:50;;;;;;;4.35;3.80;;;;;;;;;;5079376;28;20178;-43
2021/08/22 04:48:16;;;;;;;5.53;3.70;;;;;;;;;;5089703;28;20257;-43
2021/08/22 04:50:42;;;;;;;5.40;3.63;;;;;;;;;;5090647;28;20170;-43
2021/08/22 04:53:08;;;;;;;4.20;3.72;;;;;;;;;;5088908;28;20185;-43
2021/08/22 04:55:34;;;;;;;4.68;3.63;;;;;;;;;;5096109;28;20222;-44
2021/08/22 04:58:00;;;;;;;4.18;3.70;;;;;;;;;;5095859;28;20410;-44
2021/08/22 05:00:26;;;;;;;9.43;3.92;;;;;;;;;;5094431;28;20166;-44
2021/08/22 05:02:52;;;;;;;6.22;4.00;;;;;;;;;;5095976;28;20188;-44
2021/08/22 05:05:18;;;;;;;4.00;3.60;;;;;;;;;;5085269;28;20171;-44
2021/08/22 05:07:44;;;;;;;5.35;4.05;;;;;;;;;;5086267;28;20192;-44
2021/08/22 05:10:10;;;;;;;4.25;3.80;;;;;;;;;;5087548;28;20181;-44
2021/08/22 05:12:37;;;;;;;5.25;3.92;;;;;;;;;;5086896;28;20245;-44
2021/08/22 05:15:06;;;;;;;4.65;3.97;;;;;;;;;;5094629;28;20561;-44
2021/08/22 05:17:32;;;;;;;5.18;4.45;;;;;;;;;;5090462;28;20509;-44
2021/08/22 05:19:58;;;;;;;5.10;4.40;;;;;;;;;;5090744;28;20213;-43
2021/08/22 05:22:24;;;;;;;5.63;4.07;;;;;;;;;;5097977;28;20617;-43
2021/08/22 05:24:50;;;;;;;4.60;4.20;;;;;;;;;;5106931;28;20413;-44
2021/08/22 05:27:16;;;;;;;5.50;4.15;;;;;;;;;;5091627;28;20181;-44
2021/08/22 05:29:42;;;;;;;5.85;4.15;;;;;;;;;;5095988;28;20169;-44
2021/08/22 05:32:09;;;;;;;6.60;4.18;;;;;;;;;;5095586;28;20220;-43
2021/08/22 05:34:34;;;;;;;4.60;3.95;;;;;;;;;;5086932;28;20196;-44
2021/08/22 05:37:00;;;;;;;4.72;4.32;;;;;;;;;;5087411;28;20534;-44
2021/08/22 05:39:27;;;;;;;5.20;4.25;;;;;;;;;;5075122;28;20175;-44
2021/08/22 05:41:53;;;;;;;4.97;4.15;;;;;;;;;;5082763;28;20178;-44
2021/08/22 05:44:19;;;;;;;4.68;4.20;;;;;;;;;;5095718;28;20166;-44
2021/08/22 05:46:45;;;;;;;4.43;4.03;;;;;;;;;;5093034;28;20188;-44
2021/08/22 05:49:11;;;;;;;7.50;4.20;;;;;;;;;;5079796;28;20204;-44
2021/08/22 05:51:37;;;;;;;4.85;4.18;;;;;;;;;;5082647;28;20205;-44
2021/08/22 05:54:03;;;;;;;4.53;4.13;;;;;;;;;;5086828;28;20277;-43
2021/08/22 05:56:29;;;;;;;4.38;3.97;;;;;;;;;;5081743;28;20185;-43
2021/08/22 05:58:55;;;;;;;4.25;3.85;;;;;;;;;;5093681;28;20178;-44
2021/08/22 06:01:21;;;;;;;5.85;4.45;;;;;;;;;;5075291;28;20193;-44
2021/08/22 06:03:47;;;;;;;4.50;3.95;;;;;;;;;;5090529;28;20190;-44
2021/08/22 06:06:13;;;;;;;7.20;4.25;;;;;;;;;;5085749;28;20232;-44
2021/08/22 06:08:39;;;;;;;5.75;4.18;;;;;;;;;;5075552;28;20723;-44
2021/08/22 06:11:05;;;;;;;5.00;4.50;;;;;;;;;;5074201;28;20210;-43
2021/08/22 06:13:31;;;;;;;4.78;4.28;;;;;;;;;;5074978;28;20182;-44
2021/08/22 06:15:57;;;;;;;5.45;4.63;;;;;;;;;;5078460;28;20177;-44
2021/08/22 06:18:23;;;;;;;4.32;3.92;;;;;;;;;;5074325;28;20170;-45
2021/08/22 06:20:49;;;;;;;5.43;4.47;;;;;;;;;;5079570;28;20564;-44
2021/08/22 06:23:15;;;;;;;5.30;4.72;;;;;;;;;;5095487;28;20608;-44
2021/08/22 06:25:41;;;;;;;7.70;4.72;;;;;;;;;;5085969;28;20278;-44
2021/08/22 06:28:07;;;;;;;6.80;4.55;;;;;;;;;;5094410;28;20490;-44
2021/08/22 06:30:33;;;;;;;6.03;4.03;;;;;;;;;;5094998;28;20253;-44
2021/08/22 06:32:59;;;;;;;4.72;3.83;;;;;;;;;;5083318;28;20193;-44
2021/08/22 06:35:25;;;;;;;7.47;4.60;;;;;;;;;;5081162;28;20166;-44
2021/08/22 06:37:51;;;;;;;5.28;3.90;;;;;;;;;;5084231;28;20174;-44
2021/08/22 06:40:18;;;;;;;5.07;4.57;;;;;;;;;;5074444;28;20162;-44
2021/08/22 06:42:44;;;;;;;6.13;4.20;;;;;;;;;;5089014;28;20178;-44
2021/08/22 06:45:10;;;;;;;4.50;4.10;;;;;;;;;;5094492;28;20205;-44
2021/08/22 06:47:36;;;;;;;5.35;4.63;;;;;;;;;;5076973;28;20191;-44
2021/08/22 06:50:03;;;;;;;4.85;4.20;;;;;;;;;;5088301;28;20188;-44
2021/08/22 06:52:29;;;;;;;5.85;4.40;;;;;;;;;;5083190;28;20201;-44
2021/08/22 06:54:55;;;;;;;4.55;4.03;;;;;;;;;;5094870;28;20247;-44
2021/08/22 06:57:21;;;;;;;4.72;4.32;;;;;;;;;;5093601;28;20537;-44
2021/08/22 06:59:47;;;;;;;4.90;4.10;;;;;;;;;;5094176;28;20620;-44
2021/08/22 07:02:13;;;;;;;5.18;4.13;;;;;;;;;;5093285;28;20481;-44
2021/08/22 07:04:39;;;;;;;5.47;4.13;;;;;;;;;;5077078;28;20186;-44
2021/08/22 07:07:05;;;;;;;4.32;3.75;;;;;;;;;;5086360;28;20186;-44
2021/08/22 07:09:31;;;;;;;4.82;4.32;;;;;;;;;;5091866;28;20177;-44
2021/08/22 07:11:57;;;;;;;5.72;3.75;;;;;;;;;;5084131;28;20454;-44
2021/08/22 07:14:23;;;;;;;5.32;3.92;;;;;;;;;;5084525;28;20174;-44
2021/08/22 07:16:49;;;;;;;4.72;4.22;;;;;;;;;;5074375;28;20178;-44
2021/08/22 07:19:15;;;;;;;4.20;3.75;;;;;;;;;;5084544;28;20170;-44
2021/08/22 07:21:41;;;;;;;5.53;3.92;;;;;;;;;;5087345;28;20268;-44
2021/08/22 07:24:07;;;;;;;4.68;3.92;;;;;;;;;;5107811;28;20260;-44
2021/08/22 07:26:33;;;;;;;4.30;3.90;;;;;;;;;;5111318;28;20190;-44
2021/08/22 07:28:59;;;;;;;5.28;4.22;;;;;;;;;;5097545;28;20170;-44
2021/08/22 07:31:25;;;;;;;4.40;4.00;;;;;;;;;;5097942;28;20205;-44
2021/08/22 07:33:51;;;;;;;4.78;3.90;;;;;;;;;;5091587;28;20192;-44
2021/08/22 07:36:17;;;;;;;6.53;4.18;;;;;;;;;;5092149;28;20545;-44
2021/08/22 07:38:43;;;;;;;5.20;3.97;;;;;;;;;;5077952;28;20236;-44
2021/08/22 07:41:09;;;;;;;4.82;3.88;;;;;;;;;;5079951;28;20177;-44
2021/08/22 07:43:35;;;;;;;4.40;4.00;;;;;;;;;;5079922;28;20600;-44
2021/08/22 07:46:01;;;;;;;3.90;3.38;;;;;;;;;;5094741;28;20204;-44
2021/08/22 07:48:27;;;;;;;4.35;3.90;;;;;;;;;;5077958;28;20231;-44
2021/08/22 07:50:53;;;;;;;6.50;3.70;;;;;;;;;;5089140;28;20182;-44
2021/08/22 07:53:19;;;;;;;4.25;3.83;;;;;;;;;;5093032;28;20181;-44
2021/08/22 07:55:45;;;;;;;6.10;4.18;;;;;;;;;;5090744;28;20171;-44
2021/08/22 07:58:11;;;;;;;5.88;3.85;;;;;;;;;;5076800;28;20173;-44
2021/08/22 08:00:37;;;;;;;6.90;4.43;;;;;;;;;;5077284;28;20186;-44
2021/08/22 08:03:03;;;;;;;7.85;4.35;;;;;;;;;;5077823;28;20186;-44
2021/08/22 08:05:29;;;;;;;5.03;3.80;;;;;;;;;;5082048;28;20181;-44
2021/08/22 08:07:55;;;;;;;5.10;4.03;;;;;;;;;;5089144;28;20496;-44
2021/08/22 08:10:22;;;;;;;4.25;3.85;;;;;;;;;;5097499;28;20166;-44
2021/08/22 08:12:48;;;;;;;6.25;3.80;;;;;;;;;;5080031;28;20198;-44
2021/08/22 08:15:14;;;;;;;7.35;4.20;;;;;;;;;;5086295;28;20250;-44
2021/08/22 08:17:40;;;;;;;5.60;3.67;;;;;;;;;;5091459;28;20175;-44
2021/08/22 08:20:06;;;;;;;5.03;3.85;;;;;;;;;;5078688;28;20461;-44
2021/08/22 08:22:32;;;;;;;4.38;3.78;;;;;;;;;;5098128;28;20647;-44
2021/08/22 08:24:58;;;;;;;4.45;4.05;;;;;;;;;;5109099;28;20184;-44
2021/08/22 08:27:24;;;;;;;4.68;3.42;;;;;;;;;;5102856;28;20178;-44
2021/08/22 08:29:51;;;;;;;3.88;3.47;;;;;;;;;;5096837;28;20169;-44
2021/08/22 08:32:17;;;;;;;4.38;3.97;;;;;;;;;;5095471;28;20198;-44
2021/08/22 08:34:43;;;;;;;4.07;3.67;;;;;;;;;;5095692;28;20222;-44
2021/08/22 08:37:09;;;;;;;4.60;3.72;;;;;;;;;;5083907;28;20174;-44
2021/08/22 08:39:35;;;;;;;4.55;3.83;;;;;;;;;;5096545;28;20290;-44
2021/08/22 08:42:20;;;;;;;5.38;4.20;;;;;;;;;;5094415;28;20266;-44
2021/08/22 08:44:47;;;;;;;4.50;3.50;;;;;;;;;;5095675;28;20180;-44
2021/08/22 08:47:16;;;;;;;4.82;4.13;;;;;;;;;;5094492;28;20761;-44
2021/08/22 08:49:54;;;;;;;5.22;3.80;;;;;;;;;;5094861;28;20541;-44
2021/08/22 08:52:22;;;;;;;5.60;4.18;;;;;;;;;;5086029;28;20761;-44
2021/08/22 08:54:49;;;;;;;4.43;3.95;;;;;;;;;;5084688;28;20542;-44
2021/08/22 08:57:16;;;;;;;5.22;4.07;;;;;;;;;;5094156;28;20213;-44
2021/08/22 08:59:42;;;;;;;4.95;4.35;;;;;;;;;;5094919;28;20186;-44
2021/08/22 09:02:09;;;;;;;5.03;4.40;;;;;;;;;;5086566;28;20182;-44
2021/08/22 09:04:41;;;;;;;5.30;4.32;;;;;;;;;;5088140;28;20216;-44
2021/08/22 09:07:26;;;;;;;5.88;4.07;;;;;;;;;;5079537;28;20186;-44
2021/08/22 09:10:10;;;;;;;4.88;3.80;;;;;;;;;;5075922;28;20186;-44
2021/08/22 09:12:39;;;;;;;4.55;4.15;;;;;;;;;;5076237;28;20229;-44
2021/08/22 09:15:24;;;;;;;4.03;3.63;;;;;;;;;;5092552;28;20184;-44
2021/08/22 09:18:08;;;;;;;4.25;3.85;;;;;;;;;;5090300;28;20235;-44
2021/08/22 09:20:53;;;;;;;4.25;3.75;;;;;;;;;;5080653;28;20181;-44
2021/08/22 09:23:31;;;;;;;3.75;3.45;;;;;;;;;;5097791;28;20181;-45
2021/08/22 09:26:16;;;;;;;4.95;4.18;;;;;;;;;;5111973;28;20549;-45
2021/08/22 09:29:02;;;;;;;5.05;3.80;;;;;;;;;;5088686;28;20215;-45
2021/08/22 09:31:40;;;;;;;4.20;3.80;;;;;;;;;;5089019;28;20288;-45
2021/08/22 09:34:25;;;;;;;4.75;4.25;;;;;;;;;;5082647;28;20170;-45
2021/08/22 09:37:10;;;;;;;5.82;3.80;;;;;;;;;;5085893;28;20448;-45
2021/08/22 09:40:11;;;;;;;4.63;4.00;;;;;;;;;;5075268;28;20170;-44
2021/08/22 09:42:56;;;;;;;3.85;3.53;;;;;;;;;;5000793;28;20280;-44
2021/08/22 09:45:40;;;;;;;4.15;3.78;;;;;;;;;;5082941;28;20772;-44
2021/08/22 09:48:25;;;;;;;4.25;3.85;;;;;;;;;;5085269;28;20608;-44
2021/08/22 09:51:10;;;;;;;4.57;4.07;;;;;;;;;;5089602;28;20565;-44
2021/08/22 09:53:55;;;;;;;5.30;4.15;;;;;;;;;;5093353;28;20205;-44
2021/08/22 09:56:33;;;;;;;5.65;3.95;;;;;;;;;;5077261;28;20251;-46
2021/08/22 09:59:17;;;;;;;5.72;4.20;;;;;;;;;;5074292;28;20269;-44
2021/08/22 10:02:02;;;;;;;4.80;4.40;;;;;;;;;;5078314;28;20201;-44
2021/08/22 10:04:36;;;;;;;5.30;4.20;;;;;;;;;;5081671;28;20198;-44
2021/08/22 10:07:12;;;;;;;4.90;4.40;;;;;;;;;;5086969;28;20200;-44
2021/08/22 10:09:38;;;;;;;4.47;3.90;;;;;;;;;;5075175;28;20185;-44
2021/08/22 10:12:04;;;;;;;5.07;4.20;;;;;;;;;;5085662;28;20216;-44
2021/08/22 10:14:30;;;;;;;4.97;4.22;;;;;;;;;;5095056;28;20177;-44
2021/08/22 10:16:56;;;;;;;5.18;4.68;;;;;;;;;;5080791;28;20178;-44
2021/08/22 10:19:23;;;;;;;4.40;4.00;;;;;;;;;;5074879;28;20204;-44
2021/08/22 10:22:08;;;;;;;4.22;3.83;;;;;;;;;;5088075;28;20457;-44
2021/08/22 10:24:38;;;;;;;4.60;4.20;;;;;;;;;;5098193;28;20264;-44
2021/08/22 10:27:07;;;;;;;5.85;4.07;;;;;;;;;;5077587;28;20194;-44
2021/08/22 10:29:33;;;;;;;5.82;4.13;;;;;;;;;;5094989;28;20238;-44
2021/08/22 10:32:01;;;;;;;5.75;4.35;;;;;;;;;;5094892;28;20194;-44
2021/08/22 10:34:28;;;;;;;4.57;3.97;;;;;;;;;;5093888;28;20274;-44
2021/08/22 10:36:54;;;;;;;5.18;4.30;;;;;;;;;;5081336;28;20564;-45
2021/08/22 10:39:26;;;;;;;5.22;4.72;;;;;;;;;;5094052;28;20366;-43
2021/08/22 10:42:02;;;;;;;5.63;4.93;;;;;;;;;;5087511;28;20443;-43
2021/08/22 10:44:37;;;;;;;5.15;4.63;;;;;;;;;;5074735;28;20561;-44
2021/08/22 10:47:08;;;;;;;8.57;4.95;;;;;;;;;;5086698;28;20177;-44
2021/08/22 10:49:53;;;;;;;6.90;4.55;;;;;;;;;;5093730;28;20451;-44
2021/08/22 10:52:23;;;;;;;6.00;4.50;;;;;;;;;;5081364;28;20217;-44
2021/08/22 10:55:07;;;;;;;5.75;4.85;;;;;;;;;;5074573;28;20174;-44
2021/08/22 10:57:43;;;;;;;5.15;4.65;;;;;;;;;;5090338;28;20173;-44
2021/08/22 11:00:22;;;;;;;5.63;4.70;;;;;;;;;;5097754;28;20652;-44
2021/08/22 11:02:49;;;;;;;5.28;4.70;;;;;;;;;;5089932;28;20235;-44
2021/08/22 11:05:16;;;;;;;4.65;4.25;;;;;;;;;;5086934;28;20306;-44
2021/08/22 11:07:43;;;;;;;7.00;4.80;;;;;;;;;;5086621;28;20181;-44
2021/08/22 11:10:13;;;;;;;4.97;4.47;;;;;;;;;;5098508;28;20158;-44
2021/08/22 11:12:39;;;;;;;4.47;4.07;;;;;;;;;;5082409;28;20273;-44
2021/08/22 11:15:06;;;;;;;4.68;4.18;;;;;;;;;;5088213;28;20174;-44
2021/08/22 11:17:32;;;;;;;5.32;4.80;;;;;;;;;;5077813;28;20573;-44
2021/08/22 11:20:14;;;;;;;4.88;4.38;;;;;;;;;;5079430;28;20166;-44
2021/08/22 11:22:41;;;;;;;4.95;4.50;;;;;;;;;;5104502;28;20185;-44
2021/08/22 11:25:08;;;;;;;5.47;4.47;;;;;;;;;;5109260;28;20192;-44
2021/08/22 11:27:34;;;;;;;5.53;4.20;;;;;;;;;;5107216;28;20193;-44
2021/08/22 11:30:01;;;;;;;4.97;4.45;;;;;;;;;;5098261;28;20169;-44
2021/08/22 11:32:29;;;;;;;4.78;4.20;;;;;;;;;;5088968;28;20241;-44
2021/08/22 11:34:55;;;;;;;4.65;4.20;;;;;;;;;;5079042;28;20181;-44
2021/08/22 11:37:22;;;;;;;4.53;4.13;;;;;;;;;;5088806;28;20177;-44
2021/08/22 11:39:48;;;;;;;4.47;4.07;;;;;;;;;;5087651;28;20223;-44
2021/08/22 11:42:19;;;;;;;4.03;3.63;;;;;;;;;;5087498;28;20198;-44
2021/08/22 11:44:45;;;;;;;5.22;4.43;;;;;;;;;;5077825;28;20196;-44
2021/08/22 11:47:11;;;;;;;4.88;4.30;;;;;;;;;;5077670;28;20183;-44
2021/08/22 11:49:37;;;;;;;5.78;4.65;;;;;;;;;;5096241;28;20189;-44
2021/08/22 11:52:04;;;;;;;4.47;4.07;;;;;;;;;;5093919;28;20224;-44
2021/08/22 11:54:33;;;;;;;7.05;4.93;;;;;;;;;;5097754;28;20173;-44
2021/08/22 11:57:18;;;;;;;4.70;4.18;;;;;;;;;;5097462;28;20197;-44
2021/08/22 11:59:44;;;;;;;4.90;4.40;;;;;;;;;;5079105;28;20193;-44
2021/08/22 12:02:20;;;;;;;6.47;4.00;;;;;;;;;;5092284;28;20260;-44
2021/08/22 12:04:46;;;;;;;6.60;4.65;;;;;;;;;;5091433;28;20243;-44
2021/08/22 12:07:12;;;;;;;5.32;4.20;;;;;;;;;;5089117;28;20539;-44
2021/08/22 12:09:49;;;;;;;5.53;4.20;;;;;;;;;;5077253;28;20550;-45
2021/08/22 12:12:21;;;;;;;5.95;4.20;;;;;;;;;;5078957;28;20197;-44
2021/08/22 12:14:48;;;;;;;5.78;4.82;;;;;;;;;;5097455;28;20170;-44
2021/08/22 12:17:21;;;;;;;5.10;4.57;;;;;;;;;;5085148;28;20175;-44
2021/08/22 12:19:47;;;;;;;4.32;3.92;;;;;;;;;;5077283;28;20202;-44
2021/08/22 12:22:13;;;;;;;5.15;4.47;;;;;;;;;;5091883;28;20512;-45
2021/08/22 12:24:47;;;;;;;6.97;4.57;;;;;;;;;;5099924;28;20182;-44
2021/08/22 12:27:24;;;;;;;4.80;4.20;;;;;;;;;;5076742;28;20929;-44
2021/08/22 12:30:04;;;;;;;6.32;4.38;;;;;;;;;;5076598;28;20197;-44
2021/08/22 12:32:34;;;;;;;4.55;4.15;;;;;;;;;;5084474;28;20464;-44
2021/08/22 12:35:07;;;;;;;5.40;4.35;;;;;;;;;;5078354;28;20175;-44
2021/08/22 12:37:33;;;;;;;5.30;4.60;;;;;;;;;;5087521;28;20315;-44
2021/08/22 12:40:00;;;;;;;5.55;4.40;;;;;;;;;;5076507;28;20565;-45
2021/08/22 12:42:27;;;;;;;5.00;4.50;;;;;;;;;;5078993;28;20179;-44
2021/08/22 12:44:54;;;;;;;6.15;4.65;;;;;;;;;;5076722;28;20170;-44
2021/08/22 12:47:20;;;;;;;6.45;4.45;;;;;;;;;;5087005;28;20165;-44
2021/08/22 12:49:46;;;;;;;7.22;4.50;;;;;;;;;;5096404;28;20190;-44
2021/08/22 12:52:14;;;;;;;5.53;4.72;;;;;;;;;;5080005;28;20213;-44
2021/08/22 12:54:40;;;;;;;4.95;4.50;;;;;;;;;;5076214;28;20171;-44
2021/08/22 12:57:06;;;;;;;4.32;3.92;;;;;;;;;;5082979;28;20566;-44
2021/08/22 12:59:33;;;;;;;5.03;4.53;;;;;;;;;;5084732;28;20187;-44
2021/08/22 13:01:59;;;;;;;5.22;4.70;;;;;;;;;;5076049;28;20538;-44
2021/08/22 13:04:26;;;;;;;5.32;4.60;;;;;;;;;;5087390;28;20185;-45
2021/08/22 13:06:53;;;;;;;6.75;4.82;;;;;;;;;;5084265;28;20206;-45
2021/08/22 13:09:21;;;;;;;6.57;4.47;;;;;;;;;;5096007;28;20170;-44
2021/08/22 13:11:47;;;;;;;5.85;4.50;;;;;;;;;;5095385;28;20209;-44
2021/08/22 13:14:13;;;;;;;5.05;4.55;;;;;;;;;;5096074;28;20232;-44
2021/08/22 13:16:39;;;;;;;5.10;4.47;;;;;;;;;;5095548;28;20207;-44
2021/08/22 13:19:05;;;;;;;5.53;4.50;;;;;;;;;;5094490;28;20178;-44
2021/08/22 13:21:32;;;;;;;4.95;4.45;;;;;;;;;;5091344;28;20189;-44
2021/08/22 13:23:58;;;;;;;5.20;4.20;;;;;;;;;;5106377;28;20226;-44
2021/08/22 13:26:25;;;;;;;5.82;4.78;;;;;;;;;;5096207;28;20172;-44
2021/08/22 13:28:52;;;;;;;10.25;4.63;;;;;;;;;;5095516;28;20174;-44
2021/08/22 13:31:19;;;;;;;4.97;4.47;;;;;;;;;;5093102;28;20197;-44
2021/08/22 13:33:45;;;;;;;6.95;4.70;;;;;;;;;;5080445;28;20585;-44
2021/08/22 13:36:11;;;;;;;5.20;4.55;;;;;;;;;;5087094;28;20174;-44
2021/08/22 13:38:37;;;;;;;5.65;4.32;;;;;;;;;;5079169;28;20171;-44
2021/08/22 13:41:03;;;;;;;5.32;4.65;;;;;;;;;;5077045;28;20206;-44
2021/08/22 13:43:29;;;;;;;5.15;4.65;;;;;;;;;;5075557;28;20182;-44
2021/08/22 13:45:56;;;;;;;9.77;4.63;;;;;;;;;;5078223;28;20489;-44
2021/08/22 13:48:22;;;;;;;8.43;4.43;;;;;;;;;;5092301;28;20169;-45
2021/08/22 13:50:48;;;;;;;5.30;4.28;;;;;;;;;;5083188;28;20257;-44
2021/08/22 13:53:15;;;;;;;5.47;4.97;;;;;;;;;;5082673;28;20269;-44
2021/08/22 13:55:41;;;;;;;6.55;5.03;;;;;;;;;;5079254;28;20179;-44
2021/08/22 13:58:07;;;;;;;6.28;4.65;;;;;;;;;;5094177;28;20204;-44
2021/08/22 14:00:33;;;;;;;5.15;4.22;;;;;;;;;;5094617;28;20173;-45
2021/08/22 14:02:59;;;;;;;5.20;4.68;;;;;;;;;;5088591;28;20218;-44
2021/08/22 14:05:25;;;;;;;5.10;4.57;;;;;;;;;;5078746;28;20188;-44
2021/08/22 14:07:52;;;;;;;6.30;4.50;;;;;;;;;;5083881;28;20354;-44
2021/08/22 14:10:18;;;;;;;4.93;4.35;;;;;;;;;;5095149;28;20185;-44
2021/08/22 14:12:44;;;;;;;5.03;4.53;;;;;;;;;;5078489;28;20209;-44
2021/08/22 14:15:11;;;;;;;8.35;4.45;;;;;;;;;;5076394;28;20185;-44
2021/08/22 14:17:37;;;;;;;6.65;4.38;;;;;;;;;;5094771;28;20180;-45
2021/08/22 14:20:04;;;;;;;10.57;4.95;;;;;;;;;;5083253;28;20271;-45
2021/08/22 14:22:30;;;;;;;6.28;4.47;;;;;;;;;;5087121;28;20193;-44
2021/08/22 14:24:56;;;;;;;5.00;4.25;;;;;;;;;;5102581;28;20192;-44
2021/08/22 14:27:22;;;;;;;5.32;4.82;;;;;;;;;;5094331;28;20178;-44
2021/08/22 14:29:48;;;;;;;5.93;4.80;;;;;;;;;;5093224;28;20537;-44
2021/08/22 14:32:14;;;;;;;5.53;4.05;;;;;;;;;;5091909;28;20236;-44
2021/08/22 14:34:41;;;;;;;8.35;4.47;;;;;;;;;;5080048;28;20166;-44
2021/08/22 14:37:07;;;;;;;5.63;4.97;;;;;;;;;;5090523;28;20186;-44
2021/08/22 14:39:34;;;;;;;5.47;4.53;;;;;;;;;;5094757;28;20166;-44
2021/08/22 14:42:04;;;;;;;5.15;4.50;;;;;;;;;;5087608;28;20841;-44
2021/08/22 14:44:30;;;;;;;5.85;4.68;;;;;;;;;;5094550;28;20185;-44
2021/08/22 14:46:56;;;;;;;5.00;4.50;;;;;;;;;;5074492;28;20184;-44
2021/08/22 14:49:22;;;;;;;10.63;4.80;;;;;;;;;;5080647;28;20246;-45